createdAt,value
2023-03-26T00:01:46.931Z,98388.22
2023-03-26T00:04:19.802Z,98401.72
2023-03-26T00:06:48.968Z,98404.28
2023-03-26T00:09:18.113Z,98394.50
2023-03-26T00:11:46.531Z,98395.69
2023-03-26T00:14:17.940Z,98384.47
2023-03-26T00:16:47.744Z,98395.78
2023-03-26T00:19:17.159Z,98390.13
2023-03-26T00:21:45.085Z,98386.75
2023-03-26T00:24:16.301Z,98351.31
2023-03-26T00:26:48.568Z,98380.00
2023-03-26T00:29:17.017Z,98389.88
2023-03-26T00:31:46.384Z,98370.50
2023-03-26T00:34:18.654Z,98378.09
2023-03-26T00:36:48.034Z,98372.63
2023-03-26T00:39:17.855Z,98366.50
2023-03-26T00:41:45.902Z,98374.59
2023-03-26T00:44:13.812Z,98388.81
2023-03-26T00:46:42.871Z,98380.75
2023-03-26T00:49:14.770Z,98381.44
2023-03-26T00:51:44.388Z,98370.72
2023-03-26T00:54:12.770Z,98351.56
2023-03-26T00:56:40.847Z,98370.25
2023-03-26T00:59:09.300Z,98348.78
2023-03-26T01:04:28.330Z,98360.69
2023-03-26T01:07:00.046Z,98349.59
2023-03-26T01:09:34.569Z,98334.94
2023-03-26T01:12:06.766Z,98339.50
2023-03-26T01:14:34.816Z,98324.16
2023-03-26T01:17:04.664Z,98326.34
2023-03-26T01:19:38.529Z,98300.66
2023-03-26T01:22:11.283Z,98309.78
2023-03-26T01:24:41.313Z,98298.25
2023-03-26T01:27:19.993Z,98283.16
2023-03-26T01:29:54.315Z,98278.69
2023-03-26T01:32:38.900Z,98264.13
2023-03-26T01:35:22.206Z,98258.53
2023-03-26T01:38:10.709Z,98251.66
2023-03-26T01:40:44.087Z,98245.72
2023-03-26T01:43:18.873Z,98243.59
2023-03-26T01:45:48.953Z,98241.50
2023-03-26T01:48:17.175Z,98232.13
2023-03-26T01:50:45.210Z,98224.41
2023-03-26T01:53:14.781Z,98213.78
2023-03-26T01:55:56.362Z,98196.09
2023-03-26T01:58:32.501Z,98202.34
2023-03-26T02:01:12.750Z,98182.47
2023-03-26T02:03:48.038Z,98185.59
2023-03-26T02:06:21.457Z,98191.22
2023-03-26T02:08:54.054Z,98177.97
2023-03-26T02:11:23.624Z,98162.22
2023-03-26T02:13:52.593Z,98141.97
2023-03-26T02:16:21.636Z,98136.72
2023-03-26T02:18:55.785Z,98137.38
2023-03-26T02:21:26.183Z,98137.56
2023-03-26T02:23:58.168Z,98131.53
2023-03-26T02:26:27.525Z,98092.13
2023-03-26T02:28:55.401Z,98127.44
2023-03-26T02:31:26.438Z,98126.44
2023-03-26T02:33:55.613Z,98118.88
2023-03-26T02:36:27.516Z,98129.00
2023-03-26T02:38:58.073Z,98125.56
2023-03-26T02:41:27.579Z,98114.63
2023-03-26T02:43:55.472Z,98121.63
2023-03-26T02:46:23.431Z,98114.28
2023-03-26T02:48:51.380Z,98109.84
2023-03-26T02:51:19.701Z,98109.41
2023-03-26T02:53:47.584Z,98097.44
2023-03-26T02:56:15.610Z,98103.63
2023-03-26T02:58:44.917Z,98097.09
2023-03-26T03:01:13.254Z,98089.41
2023-03-26T03:03:41.607Z,98086.06
2023-03-26T03:06:10.270Z,98068.59
2023-03-26T03:08:38.160Z,98060.75
2023-03-26T03:11:10.882Z,98024.53
2023-03-26T03:13:39.193Z,98046.28
2023-03-26T03:16:09.480Z,98048.38
2023-03-26T03:18:37.967Z,98044.66
2023-03-26T03:21:07.193Z,98027.88
2023-03-26T03:23:35.481Z,98027.50
2023-03-26T03:26:03.461Z,98030.16
2023-03-26T03:28:31.664Z,98027.50
2023-03-26T03:30:59.630Z,98022.91
2023-03-26T03:33:30.399Z,98007.97
2023-03-26T03:35:59.496Z,97995.56
2023-03-26T03:38:27.424Z,97988.59
2023-03-26T03:40:55.596Z,97993.28
2023-03-26T03:43:23.511Z,97987.59
2023-03-26T03:45:51.503Z,97996.00
2023-03-26T03:48:19.556Z,97989.47
2023-03-26T03:50:48.848Z,97976.94
2023-03-26T03:53:18.508Z,97967.47
2023-03-26T03:55:53.136Z,97964.66
2023-03-26T03:58:22.476Z,97951.28
2023-03-26T04:00:50.709Z,97956.53
2023-03-26T04:03:19.970Z,97956.97
2023-03-26T04:06:07.004Z,97946.34
2023-03-26T04:08:35.159Z,97949.16
2023-03-26T04:11:03.110Z,97938.66
2023-03-26T04:13:31.313Z,97899.38
2023-03-26T04:15:59.521Z,97925.25
2023-03-26T04:18:27.895Z,97927.34
2023-03-26T04:20:55.865Z,97916.31
2023-03-26T04:23:26.768Z,97913.50
2023-03-26T04:25:56.058Z,97899.81
2023-03-26T04:28:30.509Z,97917.00
2023-03-26T04:31:02.097Z,97912.84
2023-03-26T04:33:31.335Z,97896.75
2023-03-26T04:36:02.792Z,97899.94
2023-03-26T04:38:35.681Z,97896.75
2023-03-26T04:41:04.609Z,97891.56
2023-03-26T04:43:35.558Z,97885.44
2023-03-26T04:46:04.661Z,97876.34
2023-03-26T04:48:32.805Z,97869.19
2023-03-26T04:51:01.473Z,97857.72
2023-03-26T04:53:29.459Z,97867.50
2023-03-26T04:56:02.155Z,97873.94
2023-03-26T04:58:32.979Z,97866.81
2023-03-26T05:01:10.271Z,97863.72
2023-03-26T05:03:39.281Z,97855.63
2023-03-26T05:06:07.912Z,97836.91
2023-03-26T05:08:35.820Z,97836.19
2023-03-26T05:11:07.502Z,97848.50
2023-03-26T05:13:35.407Z,97851.28
2023-03-26T05:16:03.320Z,97843.75
2023-03-26T05:18:32.327Z,97852.00
2023-03-26T05:21:00.395Z,97837.88
2023-03-26T05:23:28.333Z,97830.22
2023-03-26T05:25:56.308Z,97824.91
2023-03-26T05:28:26.809Z,97826.97
2023-03-26T05:30:55.554Z,97824.88
2023-03-26T05:33:23.937Z,97828.81
2023-03-26T05:36:02.263Z,97806.28
2023-03-26T05:38:31.381Z,97782.00
2023-03-26T05:41:00.736Z,97759.50
2023-03-26T05:43:30.462Z,97746.09
2023-03-26T05:45:58.497Z,97736.31
2023-03-26T05:48:27.028Z,97750.69
2023-03-26T05:50:57.369Z,97737.56
2023-03-26T05:53:27.590Z,97743.56
2023-03-26T05:55:58.034Z,97713.84
2023-03-26T05:58:26.372Z,97715.63
2023-03-26T06:01:05.766Z,97714.81
2023-03-26T06:03:34.422Z,97709.78
2023-03-26T06:06:03.935Z,97706.03
2023-03-26T06:08:32.222Z,97706.56
2023-03-26T06:11:01.157Z,97695.28
2023-03-26T06:13:45.002Z,97695.81
2023-03-26T06:16:27.733Z,97691.78
2023-03-26T06:18:57.116Z,97699.06
2023-03-26T06:21:25.756Z,97690.81
2023-03-26T06:23:53.668Z,97686.34
2023-03-26T06:26:21.795Z,97678.38
2023-03-26T06:28:49.737Z,97685.34
2023-03-26T06:31:19.600Z,97693.03
2023-03-26T06:33:48.839Z,97692.31
2023-03-26T06:36:16.946Z,97697.59
2023-03-26T06:38:44.901Z,97693.06
2023-03-26T06:41:13.145Z,97702.59
2023-03-26T06:43:41.008Z,97697.00
2023-03-26T06:46:09.006Z,97697.56
2023-03-26T06:48:38.349Z,97684.13
2023-03-26T06:51:06.864Z,97675.50
2023-03-26T06:53:34.716Z,97667.38
2023-03-26T06:56:03.351Z,97667.69
2023-03-26T06:58:31.792Z,97665.56
2023-03-26T07:01:00.622Z,97661.63
2023-03-26T07:03:29.835Z,97662.03
2023-03-26T07:06:00.106Z,97653.53
2023-03-26T07:08:28.119Z,97656.00
2023-03-26T07:10:56.279Z,97652.47
2023-03-26T07:13:24.375Z,97635.53
2023-03-26T07:15:52.342Z,97640.38
2023-03-26T07:18:20.515Z,97655.69
2023-03-26T07:20:48.911Z,97639.47
2023-03-26T07:23:21.346Z,97624.66
2023-03-26T07:25:49.907Z,97637.81
2023-03-26T07:28:25.595Z,97657.22
2023-03-26T07:31:01.902Z,97654.22
2023-03-26T07:33:38.405Z,97637.97
2023-03-26T07:36:21.903Z,97654.66
2023-03-26T07:39:07.350Z,97667.13
2023-03-26T07:41:44.394Z,97652.00
2023-03-26T07:44:25.888Z,97662.09
2023-03-26T07:46:54.758Z,97675.06
2023-03-26T07:49:23.484Z,97690.88
2023-03-26T07:51:52.049Z,97730.88
2023-03-26T07:54:21.905Z,97747.91
2023-03-26T07:56:58.685Z,97738.00
2023-03-26T07:59:32.274Z,97742.03
2023-03-26T08:02:19.071Z,97740.63
2023-03-26T08:05:00.955Z,97742.44
2023-03-26T08:07:42.478Z,97736.16
2023-03-26T08:10:18.895Z,97749.28
2023-03-26T08:12:56.320Z,97746.94
2023-03-26T08:15:30.733Z,97728.91
2023-03-26T08:18:04.394Z,97751.81
2023-03-26T08:20:41.608Z,97743.44
2023-03-26T08:23:17.109Z,97743.19
2023-03-26T08:25:59.428Z,97742.03
2023-03-26T08:28:44.638Z,97745.66
2023-03-26T08:31:15.459Z,97742.81
2023-03-26T08:33:43.777Z,97732.41
2023-03-26T08:36:11.803Z,97739.91
2023-03-26T08:38:39.769Z,97737.47
2023-03-26T08:41:52.009Z,97734.03
2023-03-26T08:44:56.580Z,97714.03
2023-03-26T08:47:48.139Z,97735.34
2023-03-26T08:50:44.436Z,97735.28
2023-03-26T08:53:42.899Z,97731.88
2023-03-26T08:56:20.716Z,97732.25
2023-03-26T08:59:21.785Z,97731.00
2023-03-26T09:02:16.121Z,97718.28
2023-03-26T09:05:08.192Z,97731.50
2023-03-26T09:08:10.718Z,97730.78
2023-03-26T09:10:52.003Z,97731.25
2023-03-26T09:14:07.269Z,97734.97
2023-03-26T09:16:57.801Z,97739.66
2023-03-26T09:19:56.463Z,97733.41
2023-03-26T09:23:00.647Z,97743.34
2023-03-26T09:26:05.799Z,97724.63
2023-03-26T09:29:11.310Z,97728.84
2023-03-26T09:31:58.308Z,97728.16
2023-03-26T09:34:31.822Z,97720.16
2023-03-26T09:37:15.843Z,97725.75
2023-03-26T09:39:53.189Z,97727.56
2023-03-26T09:42:34.874Z,97717.09
2023-03-26T09:45:22.735Z,97736.84
2023-03-26T09:48:19.864Z,97733.53
2023-03-26T09:51:26.699Z,97735.81
2023-03-26T09:54:28.910Z,97735.97
2023-03-26T09:57:08.351Z,97717.56
2023-03-26T10:00:03.295Z,97734.44
2023-03-26T10:02:45.647Z,97721.03
2023-03-26T10:05:47.602Z,97727.34
2023-03-26T10:08:41.418Z,97733.50
2023-03-26T10:11:18.622Z,97740.59
2023-03-26T10:13:58.022Z,97712.50
2023-03-26T10:16:42.021Z,97732.56
2023-03-26T10:19:33.006Z,97736.19
2023-03-26T10:22:12.703Z,97737.28
2023-03-26T10:25:01.447Z,97736.63
2023-03-26T10:27:44.688Z,97734.81
2023-03-26T10:30:39.075Z,97742.97
2023-03-26T10:33:15.137Z,97731.63
2023-03-26T10:36:01.184Z,97746.13
2023-03-26T10:38:49.538Z,97734.78
2023-03-26T10:41:23.875Z,97738.63
2023-03-26T10:44:09.280Z,97731.78
2023-03-26T10:47:12.822Z,97732.44
2023-03-26T10:50:27.367Z,97724.44
2023-03-26T10:53:00.812Z,97726.56
2023-03-26T10:55:33.008Z,97730.00
2023-03-26T10:58:06.335Z,97720.16
2023-03-26T11:00:40.493Z,97717.25
2023-03-26T11:03:22.789Z,97729.59
2023-03-26T11:06:01.062Z,97708.03
2023-03-26T11:08:38.489Z,97695.22
2023-03-26T11:11:18.832Z,97710.53
2023-03-26T11:13:55.443Z,97710.34
2023-03-26T11:16:30.729Z,97706.97
2023-03-26T11:19:05.710Z,97722.72
2023-03-26T11:21:43.142Z,97734.97
2023-03-26T11:24:36.175Z,97759.56
2023-03-26T11:27:17.020Z,97735.09
2023-03-26T11:29:56.885Z,97766.97
2023-03-26T11:32:28.473Z,97767.75
2023-03-26T11:35:02.449Z,97734.75
2023-03-26T11:37:36.012Z,97753.47
2023-03-26T11:40:11.581Z,97764.81
2023-03-26T11:42:40.634Z,97752.94
2023-03-26T11:45:17.759Z,97752.41
2023-03-26T11:47:52.025Z,97786.19
2023-03-26T11:50:23.703Z,97795.91
2023-03-26T11:52:53.105Z,97778.38
2023-03-26T11:55:21.242Z,97789.59
2023-03-26T11:57:54.895Z,97767.22
2023-03-26T12:00:27.613Z,97744.22
2023-03-26T12:02:58.938Z,97728.34
2023-03-26T12:05:33.549Z,97728.22
2023-03-26T12:08:07.846Z,97724.84
2023-03-26T12:10:38.678Z,97723.31
2023-03-26T12:13:26.727Z,97722.59
2023-03-26T12:15:59.576Z,97709.88
2023-03-26T12:18:29.547Z,97710.13
2023-03-26T12:21:09.373Z,97707.34
2023-03-26T12:23:53.015Z,97717.09
2023-03-26T12:26:30.381Z,97710.41
2023-03-26T12:28:58.534Z,97692.25
2023-03-26T12:31:26.683Z,97684.63
2023-03-26T12:34:14.919Z,97700.00
2023-03-26T12:36:50.498Z,97686.44
2023-03-26T12:40:10.741Z,97690.06
2023-03-26T12:44:51.503Z,97678.84
2023-03-26T12:45:17.514Z,97649.66
2023-03-26T12:48:01.102Z,97681.97
2023-03-26T12:50:47.579Z,97679.78
2023-03-26T12:53:28.404Z,97667.00
2023-03-26T12:56:02.364Z,97658.72
2023-03-26T12:59:00.232Z,97662.69
2023-03-26T13:01:39.912Z,97654.19
2023-03-26T13:04:27.004Z,97645.97
2023-03-26T13:07:02.168Z,97639.72
2023-03-26T13:09:44.272Z,97631.44
2023-03-26T13:12:28.107Z,97612.34
2023-03-26T13:15:10.330Z,97622.19
2023-03-26T13:17:47.930Z,97596.00
2023-03-26T13:20:21.511Z,97580.47
2023-03-26T13:22:59.695Z,97605.53
2023-03-26T13:25:36.545Z,97608.41
2023-03-26T13:28:18.530Z,97610.38
2023-03-26T13:30:53.552Z,97600.97
2023-03-26T13:33:32.657Z,97618.59
2023-03-26T13:36:21.753Z,97578.47
2023-03-26T13:39:11.373Z,97586.94
2023-03-26T13:41:53.111Z,97587.97
2023-03-26T13:44:33.407Z,97612.44
2023-03-26T13:47:05.751Z,97646.91
2023-03-26T13:49:38.702Z,97677.91
2023-03-26T13:52:11.614Z,97741.25
2023-03-26T13:54:44.932Z,97729.53
2023-03-26T13:57:20.224Z,97753.69
2023-03-26T13:59:55.689Z,97758.50
2023-03-26T14:02:31.872Z,97763.50
2023-03-26T14:05:05.144Z,97765.16
2023-03-26T14:07:42.613Z,97753.16
2023-03-26T14:10:14.250Z,97778.31
2023-03-26T14:12:51.540Z,97784.00
2023-03-26T14:15:26.669Z,97781.16
2023-03-26T14:18:01.292Z,97774.16
2023-03-26T14:20:57.600Z,97774.88
2023-03-26T14:23:59.802Z,97766.44
2023-03-26T14:26:46.364Z,97763.13
2023-03-26T14:29:57.160Z,97764.06
2023-03-26T14:32:52.861Z,97763.50
2023-03-26T14:35:29.417Z,97746.38
2023-03-26T14:38:20.334Z,97759.22
2023-03-26T14:40:58.837Z,97758.47
2023-03-26T14:44:02.421Z,97752.81
2023-03-26T14:46:53.183Z,97763.50
2023-03-26T14:49:34.446Z,97760.88
2023-03-26T14:52:12.062Z,97759.25
2023-03-26T14:54:43.939Z,97751.72
2023-03-26T14:57:47.969Z,97742.22
2023-03-26T15:00:38.967Z,97747.94
2023-03-26T15:03:49.833Z,97745.44
2023-03-26T15:06:51.411Z,97752.09
2023-03-26T15:09:57.830Z,97754.34
2023-03-26T15:12:53.073Z,97752.53
2023-03-26T15:16:08.751Z,97745.53
2023-03-26T15:19:11.844Z,97733.94
2023-03-26T15:22:08.081Z,97734.38
2023-03-26T15:25:00.361Z,97722.84
2023-03-26T15:28:05.313Z,97717.25
2023-03-26T15:31:10.958Z,97719.66
2023-03-26T15:34:13.848Z,97713.94
2023-03-26T15:37:10.725Z,97722.97
2023-03-26T15:40:00.067Z,97720.44
2023-03-26T15:42:38.507Z,97722.09
2023-03-26T15:45:34.591Z,97727.38
2023-03-26T15:48:32.106Z,97730.75
2023-03-26T15:51:15.441Z,97729.19
2023-03-26T15:53:51.892Z,97715.13
2023-03-26T15:56:32.934Z,97710.34
2023-03-26T15:59:11.956Z,97723.81
2023-03-26T16:01:51.933Z,97723.25
2023-03-26T16:04:30.615Z,97733.66
2023-03-26T16:07:12.140Z,97743.38
2023-03-26T16:09:53.165Z,97754.88
2023-03-26T16:12:38.241Z,97763.44
2023-03-26T16:15:29.811Z,97767.31
2023-03-26T16:18:36.073Z,97769.44
2023-03-26T16:21:34.439Z,97778.06
2023-03-26T16:24:21.979Z,97779.16
2023-03-26T16:27:03.515Z,97781.22
2023-03-26T16:29:31.894Z,97783.63
2023-03-26T16:32:11.874Z,97767.13
2023-03-26T16:34:43.676Z,97778.34
2023-03-26T16:37:40.867Z,97772.03
2023-03-26T16:40:28.639Z,97771.03
2023-03-26T16:43:07.473Z,97768.69
2023-03-26T16:45:40.882Z,97766.34
2023-03-26T16:48:22.720Z,97759.66
2023-03-26T16:50:57.809Z,97757.53
2023-03-26T16:53:41.762Z,97776.78
2023-03-26T16:56:18.127Z,97772.13
2023-03-26T16:58:56.379Z,97774.34
2023-03-26T17:01:36.242Z,97777.16
2023-03-26T17:04:11.872Z,97777.69
2023-03-26T17:07:04.897Z,97776.75
2023-03-26T17:09:46.613Z,97784.09
2023-03-26T17:12:20.885Z,97784.94
2023-03-26T17:15:08.469Z,97775.84
2023-03-26T17:17:51.589Z,97769.66
2023-03-26T17:20:33.482Z,97784.19
2023-03-26T17:23:12.846Z,97783.22
2023-03-26T17:25:54.695Z,97779.72
2023-03-26T17:28:39.813Z,97771.31
2023-03-26T17:31:19.547Z,97781.47
2023-03-26T17:33:47.982Z,97779.38
2023-03-26T17:36:33.231Z,97787.94
2023-03-26T17:39:20.730Z,97789.88
2023-03-26T17:41:57.307Z,97779.66
2023-03-26T17:44:38.829Z,97784.25
2023-03-26T17:47:19.211Z,97783.03
2023-03-26T17:49:51.378Z,97775.19
2023-03-26T17:52:25.422Z,97785.06
2023-03-26T17:54:57.453Z,97796.44
2023-03-26T17:57:33.505Z,97787.00
2023-03-26T18:00:03.726Z,97777.41
2023-03-26T18:02:39.761Z,97774.75
2023-03-26T18:05:12.461Z,97771.34
2023-03-26T18:08:15.657Z,97774.72
2023-03-26T18:11:02.775Z,97781.28
2023-03-26T18:14:06.213Z,97770.97
2023-03-26T18:16:40.090Z,97773.81
2023-03-26T18:19:18.407Z,97772.59
2023-03-26T18:21:50.318Z,97776.44
2023-03-26T18:24:22.497Z,97774.13
2023-03-26T18:26:56.676Z,97768.41
2023-03-26T18:29:26.712Z,97772.59
2023-03-26T18:32:00.442Z,97767.19
2023-03-26T18:34:32.103Z,97763.22
2023-03-26T18:37:15.007Z,97761.44
2023-03-26T18:39:43.626Z,97757.94
2023-03-26T18:42:22.863Z,97762.72
2023-03-26T18:44:53.412Z,97753.97
2023-03-26T18:47:24.173Z,97757.69
2023-03-26T18:49:58.184Z,97751.75
2023-03-26T18:52:29.401Z,97747.19
2023-03-26T18:54:59.178Z,97740.09
2023-03-26T18:57:29.870Z,97740.84
2023-03-26T19:00:15.693Z,97734.78
2023-03-26T19:02:46.268Z,97744.53
2023-03-26T19:05:16.781Z,97753.91
2023-03-26T19:07:47.270Z,97765.72
2023-03-26T19:10:22.179Z,97777.50
2023-03-26T19:12:56.532Z,97794.25
2023-03-26T19:15:26.155Z,97785.84
2023-03-26T19:18:03.887Z,97786.75
2023-03-26T19:20:39.035Z,97803.78
2023-03-26T19:23:09.092Z,97794.56
2023-03-26T19:25:41.253Z,97791.56
2023-03-26T19:28:18.284Z,97800.41
2023-03-26T19:30:46.249Z,97788.56
2023-03-26T19:33:18.949Z,97783.63
2023-03-26T19:35:52.586Z,97781.09
2023-03-26T19:38:24.476Z,97769.69
2023-03-26T19:40:54.191Z,97749.41
2023-03-26T19:43:23.203Z,97743.13
2023-03-26T19:46:00.581Z,97741.47
2023-03-26T19:48:46.839Z,97746.28
2023-03-26T19:51:21.113Z,97730.66
2023-03-26T19:53:50.322Z,97742.31
2023-03-26T19:56:20.859Z,97731.84
2023-03-26T19:58:50.154Z,97734.50
2023-03-26T20:01:20.979Z,97732.00
2023-03-26T20:03:53.055Z,97739.56
2023-03-26T20:06:34.022Z,97739.41
2023-03-26T20:09:06.260Z,97744.94
2023-03-26T20:11:38.074Z,97745.31
2023-03-26T20:14:13.747Z,97751.06
2023-03-26T20:16:43.851Z,97760.34
2023-03-26T20:19:15.229Z,97761.88
2023-03-26T20:21:44.374Z,97768.16
2023-03-26T20:24:15.808Z,97773.66
2023-03-26T20:26:44.838Z,97770.91
2023-03-26T20:29:13.360Z,97756.84
2023-03-26T20:31:42.553Z,97772.69
2023-03-26T20:34:18.666Z,97779.63
2023-03-26T20:36:47.189Z,97788.16
2023-03-26T20:39:15.564Z,97786.50
2023-03-26T20:41:46.766Z,97796.09
2023-03-26T20:44:17.066Z,97802.91
2023-03-26T20:46:46.711Z,97802.19
2023-03-26T20:49:15.201Z,97814.53
2023-03-26T20:51:45.404Z,97809.50
2023-03-26T20:54:17.800Z,97812.72
2023-03-26T20:56:47.884Z,97809.63
2023-03-26T20:59:22.280Z,97801.00
2023-03-26T21:01:51.280Z,97804.09
2023-03-26T21:04:20.256Z,97808.09
2023-03-26T21:06:50.128Z,97810.59
2023-03-26T21:09:23.776Z,97814.56
2023-03-26T21:12:00.523Z,97816.50
2023-03-26T21:14:33.438Z,97819.97
2023-03-26T21:17:02.422Z,97805.56
2023-03-26T21:19:30.888Z,97813.75
2023-03-26T21:22:10.274Z,97812.19
2023-03-26T21:25:04.388Z,97818.06
2023-03-26T21:27:40.489Z,97820.09
2023-03-26T21:30:14.327Z,97824.19
2023-03-26T21:32:42.544Z,97826.09
2023-03-26T21:35:13.381Z,97826.00
2023-03-26T21:37:44.180Z,97833.28
2023-03-26T21:40:14.716Z,97831.38
2023-03-26T21:42:43.327Z,97830.44
2023-03-26T21:45:12.943Z,97829.25
2023-03-26T21:47:41.771Z,97823.47
2023-03-26T21:50:12.819Z,97824.53
2023-03-26T21:52:51.013Z,97823.69
2023-03-26T21:55:20.638Z,97824.53
2023-03-26T21:58:12.655Z,97826.00
2023-03-26T22:00:46.962Z,97823.22
2023-03-26T22:03:24.393Z,97823.81
2023-03-26T22:06:00.664Z,97833.66
2023-03-26T22:08:33.959Z,97827.78
2023-03-26T22:11:02.097Z,97831.97
2023-03-26T22:13:31.070Z,97829.81
2023-03-26T22:15:59.482Z,97839.06
2023-03-26T22:18:30.360Z,97836.19
2023-03-26T22:20:59.244Z,97832.94
2023-03-26T22:23:27.328Z,97844.56
2023-03-26T22:25:57.806Z,97844.56
2023-03-26T22:28:25.850Z,97854.06
2023-03-26T22:30:53.895Z,97855.38
2023-03-26T22:33:21.963Z,97857.75
2023-03-26T22:35:49.867Z,97865.97
2023-03-26T22:38:18.030Z,97876.75
2023-03-26T22:40:45.918Z,97880.22
2023-03-26T22:43:15.241Z,97882.75
2023-03-26T22:45:50.380Z,97883.56
2023-03-26T22:48:18.458Z,97882.31
2023-03-26T22:50:46.378Z,97892.28
2023-03-26T22:53:14.324Z,97888.81
2023-03-26T22:55:42.217Z,97895.41
2023-03-26T22:58:10.112Z,97902.47
2023-03-26T23:00:40.028Z,97908.94
2023-03-26T23:03:08.424Z,97906.50
2023-03-26T23:05:36.366Z,97920.94
2023-03-26T23:08:04.717Z,97913.91
2023-03-26T23:10:32.560Z,97918.63
2023-03-26T23:13:00.643Z,97918.44
2023-03-26T23:15:28.581Z,97918.09
2023-03-26T23:17:58.928Z,97914.22
2023-03-26T23:20:27.644Z,97915.97
2023-03-26T23:22:55.909Z,97919.16
2023-03-26T23:25:23.764Z,97918.03
2023-03-26T23:27:53.785Z,97921.94
2023-03-26T23:30:21.729Z,97921.53
2023-03-26T23:32:49.660Z,97934.69
2023-03-26T23:35:18.982Z,97933.72
2023-03-26T23:37:47.168Z,97942.13
2023-03-26T23:40:15.643Z,97935.13
2023-03-26T23:42:43.642Z,97942.72
2023-03-26T23:45:13.091Z,97940.53
2023-03-26T23:47:42.659Z,97952.63
2023-03-26T23:50:12.576Z,97970.56
2023-03-26T23:52:41.873Z,97968.25
2023-03-26T23:55:10.354Z,97966.25
2023-03-26T23:57:38.298Z,97977.88
